Time;durP1;ratioP1;P1;durP2;ratioP2;P2;SDS_P1;SDS_P2;PMS_P1;PMS_P2;Temp;Humidity;BMP_temperature;BMP_pressure;BME280_temperature;BME280_humidity;BME280_pressure;Samples;Min_cycle;Max_cycle;Signal;HPM_P1;HPM_P2
2023/07/01 00:01:57;;;;;;;19.02;6.37;;;;;;;18.84;79.97;99137.30;1738002;82;21337;-81
2023/07/01 00:05:03;;;;;;;12.88;6.00;;;;;;;18.70;80.05;99134.63;1738283;82;21302;-81
2023/07/01 00:08:10;;;;;;;25.08;6.45;;;;;;;18.57;80.62;99132.48;1738108;82;21361;-81
2023/07/01 00:11:10;;;;;;;16.30;6.53;;;;;;;18.53;80.79;99131.32;1738128;82;21346;-81
2023/07/01 00:14:15;;;;;;;16.77;6.08;;;;;;;18.43;81.37;99134.52;1738198;82;21924;-81
2023/07/01 00:17:21;;;;;;;16.60;7.05;;;;;;;18.39;81.46;99129.48;1738199;82;21305;-81
2023/07/01 00:20:27;;;;;;;21.35;6.42;;;;;;;18.28;81.87;99129.05;1737078;82;21305;-81
2023/07/01 00:23:34;;;;;;;19.10;7.00;;;;;;;18.43;81.33;99125.66;1738267;82;22794;-81
2023/07/01 00:26:39;;;;;;;19.00;6.60;;;;;;;18.54;80.81;99118.34;1737974;82;21342;-81
2023/07/01 00:29:46;;;;;;;23.00;6.83;;;;;;;18.53;80.81;99124.40;1737674;82;21346;-81
2023/07/01 00:32:51;;;;;;;23.25;7.00;;;;;;;18.53;80.53;99123.56;1738255;82;21306;-81
2023/07/01 00:35:57;;;;;;;23.27;6.85;;;;;;;18.59;80.54;99120.62;1738287;82;21303;-81
2023/07/01 00:39:03;;;;;;;20.95;6.37;;;;;;;18.56;80.64;99116.97;1738171;82;21905;-81
2023/07/01 00:42:11;;;;;;;19.42;6.90;;;;;;;18.54;80.42;99121.95;1737717;82;21915;-81
2023/07/01 00:45:17;;;;;;;21.77;6.58;;;;;;;18.52;80.80;99115.81;1736861;82;21327;-81
2023/07/01 00:48:31;;;;;;;20.05;7.65;;;;;;;18.52;80.97;99120.52;1738290;82;21299;-81
2023/07/01 00:51:37;;;;;;;17.60;7.35;;;;;;;18.49;81.03;99116.86;1738211;82;21279;-81
2023/07/01 00:54:42;;;;;;;14.58;6.60;;;;;;;18.48;80.88;99121.56;1738315;82;21315;-81
2023/07/01 00:57:49;;;;;;;24.50;6.80;;;;;;;18.44;80.71;99131.48;1736620;82;21353;-81
2023/07/01 01:00:56;;;;;;;17.98;7.03;;;;;;;18.43;80.89;99128.42;1728297;83;21298;-81
2023/07/01 01:04:14;;;;;;;18.62;7.00;;;;;;;18.37;81.15;99135.00;1728025;83;21327;-80
2023/07/01 01:07:31;;;;;;;17.70;6.08;;;;;;;18.73;79.96;99134.13;1729456;83;21314;-81
2023/07/01 01:10:36;;;;;;;16.07;6.78;;;;;;;18.51;80.51;99136.84;1728455;83;21338;-81
2023/07/01 01:13:44;;;;;;;14.18;6.28;;;;;;;18.51;80.50;99141.83;1728299;83;21350;-81
2023/07/01 01:16:49;;;;;;;16.93;7.03;;;;;;;18.25;81.36;99139.79;1729962;83;21315;-80
2023/07/01 01:20:16;;;;;;;16.20;6.47;;;;;;;18.35;81.02;99131.66;1729113;83;21322;-81
2023/07/01 01:23:34;;;;;;;14.45;5.97;;;;;;;18.31;81.42;99138.80;1729383;83;21302;-81
2023/07/01 01:26:45;;;;;;;17.57;6.47;;;;;;;18.34;81.27;99137.71;1729550;83;21300;-81
2023/07/01 01:29:51;;;;;;;11.48;5.55;;;;;;;18.32;81.31;99137.14;1728099;83;21383;-81
2023/07/01 01:32:56;;;;;;;13.13;6.05;;;;;;;18.19;81.94;99140.81;1729366;83;21306;-81
2023/07/01 01:36:06;;;;;;;16.57;6.90;;;;;;;18.27;81.44;99145.92;1729649;83;21302;-81
2023/07/01 01:39:13;;;;;;;10.10;6.12;;;;;;;18.25;81.60;99146.71;1728245;83;21314;-81
2023/07/01 01:42:26;;;;;;;17.75;6.10;;;;;;;18.28;81.41;99150.36;1729400;83;21303;-81
2023/07/01 01:45:32;;;;;;;12.47;6.08;;;;;;;18.30;81.43;99150.41;1729345;83;21307;-81
2023/07/01 01:48:38;;;;;;;18.57;6.42;;;;;;;18.38;81.09;99156.04;1728151;83;21389;-81
2023/07/01 01:51:45;;;;;;;13.70;6.33;;;;;;;18.26;81.32;99165.84;1708677;83;21341;-81
2023/07/01 01:54:52;;;;;;;13.18;6.22;;;;;;;18.41;80.78;99156.92;1729443;83;21320;-81
2023/07/01 01:57:58;;;;;;;8.63;5.80;;;;;;;18.44;80.42;99162.48;1729155;83;21339;-81
2023/07/01 02:01:05;;;;;;;13.03;5.58;;;;;;;18.44;80.84;99163.31;1728695;83;21680;-81
2023/07/01 02:04:11;;;;;;;10.63;5.28;;;;;;;18.68;80.75;99165.33;1728014;83;22626;-81
2023/07/01 02:07:17;;;;;;;19.17;6.50;;;;;;;19.00;79.45;99163.23;1728093;83;21303;-81
2023/07/01 02:10:23;;;;;;;10.82;5.72;;;;;;;19.17;79.04;99163.17;1729161;83;21335;-81
2023/07/01 02:13:29;;;;;;;10.15;5.67;;;;;;;19.41;78.27;99161.20;1728955;83;21920;-81
2023/07/01 02:16:36;;;;;;;15.32;6.10;;;;;;;19.73;76.90;99167.92;1727964;83;21362;-80
2023/07/01 02:19:42;;;;;;;11.55;6.22;;;;;;;19.91;76.37;99170.30;1729420;83;21853;-81
2023/07/01 02:22:49;;;;;;;16.95;5.53;;;;;;;20.13;75.75;99172.95;1729369;83;21317;-81
2023/07/01 02:25:55;;;;;;;12.88;6.25;;;;;;;20.44;73.99;99171.23;1729343;83;21374;-81
2023/07/01 02:29:02;;;;;;;13.55;6.10;;;;;;;20.64;72.75;99166.36;1728673;83;21323;-81
2023/07/01 02:32:08;;;;;;;22.10;6.15;;;;;;;20.85;72.16;99171.48;1728280;83;21362;-80
2023/07/01 02:35:14;;;;;;;12.07;5.55;;;;;;;21.11;70.89;99167.67;1729446;83;21303;-80
2023/07/01 02:38:20;;;;;;;11.55;5.87;;;;;;;21.43;70.16;99169.47;1729484;83;21670;-81
2023/07/01 02:41:26;;;;;;;10.30;5.75;;;;;;;21.86;68.50;99172.29;1728980;83;21909;-80
2023/07/01 02:44:31;;;;;;;16.65;5.47;;;;;;;22.26;67.02;99168.42;1728523;83;21343;-80
2023/07/01 02:47:38;;;;;;;14.73;5.37;;;;;;;22.31;66.20;99179.00;1729702;83;21298;-80
2023/07/01 02:50:44;;;;;;;7.85;4.97;;;;;;;22.79;64.88;99174.42;1729313;83;21872;-80
2023/07/01 02:53:49;;;;;;;11.30;5.22;;;;;;;23.08;63.03;99181.58;1729385;83;21335;-80
2023/07/01 02:56:55;;;;;;;8.78;5.25;;;;;;;23.18;62.02;99182.36;1727968;83;21302;-80
2023/07/01 03:00:04;;;;;;;11.43;5.60;;;;;;;23.32;61.62;99183.13;1728505;80;21314;-80
2023/07/01 03:03:09;;;;;;;7.85;4.95;;;;;;;23.57;60.06;99185.79;1728350;83;21342;-81
2023/07/01 03:06:15;;;;;;;12.05;5.30;;;;;;;23.59;59.49;99184.09;1729374;83;21306;-81
2023/07/01 03:09:20;;;;;;;8.55;5.55;;;;;;;23.60;59.12;99186.59;1729380;83;21860;-81
2023/07/01 03:12:26;;;;;;;13.05;5.03;;;;;;;23.61;59.42;99184.63;1728565;83;21346;-81
2023/07/01 03:15:31;;;;;;;8.58;5.30;;;;;;;23.75;58.33;99189.03;1728191;83;21351;-81
2023/07/01 03:18:38;;;;;;;9.70;6.05;;;;;;;23.74;58.03;99192.95;1727999;83;21892;-81
2023/07/01 03:21:46;;;;;;;8.38;5.80;;;;;;;23.76;58.14;99196.27;1729152;83;21308;-81
2023/07/01 03:24:52;;;;;;;8.33;6.00;;;;;;;23.76;58.16;99194.88;1727994;83;21675;-81
2023/07/01 03:27:59;;;;;;;15.45;6.42;;;;;;;23.82;58.13;99200.72;1729398;83;21327;-81
2023/07/01 03:31:06;;;;;;;10.20;6.08;;;;;;;23.76;58.41;99203.25;1727921;83;21649;-81
2023/07/01 03:34:12;;;;;;;8.88;5.92;;;;;;;23.80;58.25;99205.74;1729281;83;21303;-81
2023/07/01 03:37:18;;;;;;;14.70;6.47;;;;;;;23.84;57.96;99198.46;1729349;83;21307;-81
2023/07/01 03:40:18;;;;;;;15.55;6.17;;;;;;;24.00;57.68;99207.01;1729506;83;21330;-81
2023/07/01 03:43:23;;;;;;;12.63;6.12;;;;;;;24.05;57.46;99208.36;1727953;83;21326;-81
2023/07/01 03:46:29;;;;;;;7.20;5.65;;;;;;;24.02;57.73;99206.14;1729240;83;21337;-81
2023/07/01 03:49:34;;;;;;;8.30;6.20;;;;;;;24.51;56.42;99205.16;1729297;83;21311;-81
2023/07/01 03:52:40;;;;;;;15.93;6.22;;;;;;;24.50;56.03;99202.67;1728615;83;21948;-80
2023/07/01 03:55:51;;;;;;;6.50;5.40;;;;;;;24.22;56.68;99211.55;1729322;83;21286;-81
2023/07/01 03:58:54;;;;;;;14.10;6.87;;;;;;;24.59;56.34;99210.69;1729416;83;21957;-80
2023/07/01 04:02:01;;;;;;;11.28;6.17;;;;;;;24.56;56.07;99207.94;1735813;82;21294;-81
2023/07/01 04:05:11;;;;;;;9.90;6.40;;;;;;;24.49;56.60;99207.43;1743328;82;21314;-80
2023/07/01 04:08:18;;;;;;;12.70;7.10;;;;;;;24.59;56.29;99207.32;1743340;82;21302;-80
2023/07/01 04:11:24;;;;;;;13.08;6.55;;;;;;;24.65;55.64;99203.33;1743218;82;21301;-80
2023/07/01 04:14:30;;;;;;;10.32;7.50;;;;;;;24.70;55.74;99211.70;1743153;82;21306;-81
2023/07/01 04:17:37;;;;;;;11.68;7.67;;;;;;;24.65;55.41;99211.72;1743248;82;21298;-81
2023/07/01 04:20:44;;;;;;;10.38;7.70;;;;;;;24.45;55.58;99210.54;1743217;82;21306;-81
2023/07/01 04:23:50;;;;;;;13.75;7.83;;;;;;;24.48;56.59;99217.78;1742116;82;21338;-80
2023/07/01 04:26:57;;;;;;;13.35;7.45;;;;;;;24.56;56.21;99221.91;1743170;82;21305;-80
2023/07/01 04:30:03;;;;;;;10.40;7.50;;;;;;;24.28;57.42;99226.87;1743150;82;21333;-80
2023/07/01 04:33:09;;;;;;;11.78;7.05;;;;;;;23.97;59.93;99213.99;1742537;82;21346;-81
2023/07/01 04:36:15;;;;;;;10.23;6.92;;;;;;;24.16;59.48;99223.06;1743071;82;21932;-81
2023/07/01 04:39:20;;;;;;;8.68;6.78;;;;;;;24.54;57.76;99225.55;1743302;82;21290;-80
2023/07/01 04:42:26;;;;;;;9.25;7.03;;;;;;;24.66;57.56;99224.59;1741892;82;21326;-81
2023/07/01 04:45:33;;;;;;;19.48;7.70;;;;;;;24.65;57.08;99230.46;1743003;82;21338;-81
2023/07/01 04:48:33;;;;;;;8.78;6.72;;;;;;;24.71;56.77;99234.33;1743312;82;21322;-80
2023/07/01 04:51:26;;;;;;;12.18;7.25;;;;;;;25.01;56.50;99239.31;1743165;82;21307;-81
2023/07/01 04:54:32;;;;;;;9.00;7.17;;;;;;;24.96;56.00;99233.77;1742128;82;21365;-81
2023/07/01 04:57:37;;;;;;;15.28;7.20;;;;;;;24.93;56.33;99232.95;1743261;82;21294;-80
2023/07/01 05:00:43;;;;;;;15.38;8.33;;;;;;;24.97;56.02;99243.83;1742936;82;21330;-81
2023/07/01 05:03:48;;;;;;;14.50;7.12;;;;;;;24.84;57.07;99241.73;1729264;82;21310;-81
2023/07/01 05:06:48;;;;;;;9.83;6.95;;;;;;;24.90;56.83;99243.36;1729431;82;21209;-81
2023/07/01 05:09:41;;;;;;;12.18;7.00;;;;;;;25.06;56.58;99244.84;1729372;83;21315;-80
2023/07/01 05:12:48;;;;;;;;;;;;;;;25.16;56.90;99238.32;1730631;83;21196;-81
2023/07/01 05:15:54;;;;;;;10.20;6.90;;;;;;;25.52;55.27;99233.10;1729277;83;20277;-81
2023/07/01 05:19:01;;;;;;;9.20;7.37;;;;;;;25.55;55.48;99236.71;1729353;83;21300;-81
2023/07/01 05:22:08;;;;;;;12.98;7.05;;;;;;;25.40;56.05;99239.69;1729393;83;21444;-81
2023/07/01 05:25:12;;;;;;;14.55;7.65;;;;;;;25.66;55.78;99242.42;1728047;83;21315;-81
2023/07/01 05:28:18;;;;;;;17.45;7.35;;;;;;;25.60;55.82;99249.23;1729596;83;21354;-81
2023/07/01 05:31:24;;;;;;;10.68;6.50;;;;;;;26.07;54.46;99253.06;1729081;83;21343;-80
2023/07/01 05:34:31;;;;;;;8.28;6.20;;;;;;;26.34;53.38;99256.52;1728528;83;21952;-80
2023/07/01 05:37:36;;;;;;;9.75;6.20;;;;;;;26.52;52.85;99259.63;1729490;83;21298;-80
2023/07/01 05:40:42;;;;;;;7.78;5.50;;;;;;;26.57;52.53;99253.36;1729473;83;21306;-80
2023/07/01 05:43:43;;;;;;;11.12;5.70;;;;;;;26.74;51.23;99259.80;1729140;83;21865;-80
2023/07/01 05:46:43;;;;;;;12.25;6.12;;;;;;;26.78;50.54;99267.03;1728992;83;21335;-81
2023/07/01 05:49:49;;;;;;;10.28;6.15;;;;;;;26.53;50.71;99265.49;1729322;83;22602;-81
2023/07/01 05:52:55;;;;;;;8.48;5.35;;;;;;;26.66;51.66;99264.13;1729405;83;21302;-80
2023/07/01 05:56:00;;;;;;;10.65;5.60;;;;;;;26.72;50.19;99267.13;1729431;83;21302;-81
2023/07/01 05:59:06;;;;;;;7.83;5.00;;;;;;;26.70;49.98;99275.58;1729403;83;21892;-81
2023/07/01 06:02:11;;;;;;;6.20;4.95;;;;;;;26.70;49.47;99275.00;1728772;83;21897;-80
2023/07/01 06:05:16;;;;;;;10.28;5.33;;;;;;;26.80;49.62;99276.78;1728036;82;21323;-81
2023/07/01 06:08:22;;;;;;;18.15;5.85;;;;;;;27.02;48.71;99277.51;1729486;83;21616;-81
2023/07/01 06:11:29;;;;;;;8.53;5.53;;;;;;;27.02;48.66;99283.12;1729428;83;21291;-81
2023/07/01 06:14:35;;;;;;;13.72;5.40;;;;;;;27.24;48.82;99279.07;1728873;83;21366;-81
2023/07/01 06:17:40;;;;;;;8.38;4.90;;;;;;;27.33;49.69;99286.74;1728651;83;21326;-81
2023/07/01 06:20:46;;;;;;;5.95;4.72;;;;;;;27.35;48.77;99288.69;1729338;83;21322;-81
2023/07/01 06:23:53;;;;;;;12.35;5.42;;;;;;;27.49;48.25;99282.48;1729316;83;21314;-81
2023/07/01 06:26:59;;;;;;;9.48;5.08;;;;;;;26.77;49.47;99287.21;1729385;83;21338;-81
2023/07/01 06:30:06;;;;;;;6.95;4.42;;;;;;;26.88;49.75;99286.48;1729439;83;21870;-81
2023/07/01 06:33:11;;;;;;;9.50;5.37;;;;;;;26.82;50.11;99287.14;1728471;83;21708;-80
2023/07/01 06:36:18;;;;;;;7.50;5.42;;;;;;;26.98;48.05;99284.87;1728035;83;21885;-80
2023/07/01 06:39:25;;;;;;;7.08;4.75;;;;;;;27.03;48.25;99284.78;1729374;83;21303;-80
2023/07/01 06:42:31;;;;;;;6.05;4.65;;;;;;;27.33;47.35;99285.34;1728011;83;21307;-80
2023/07/01 06:45:41;;;;;;;14.05;4.70;;;;;;;27.19;46.54;99290.38;1728511;83;21885;-80
2023/07/01 06:48:48;;;;;;;5.50;4.50;;;;;;;27.29;47.34;99294.98;1728316;83;21925;-78
2023/07/01 06:51:54;;;;;;;8.93;4.22;;;;;;;27.00;48.27;99291.00;1729247;83;21303;-80
2023/07/01 06:55:00;;;;;;;16.82;5.12;;;;;;;27.17;47.51;99296.05;1729006;83;21365;-80
2023/07/01 06:58:08;;;;;;;7.58;4.90;;;;;;;27.29;48.62;99296.38;1729289;83;21310;-80
2023/07/01 07:01:15;;;;;;;8.75;5.37;;;;;;;27.38;49.15;99295.89;1729312;83;21329;-80
2023/07/01 07:04:21;;;;;;;6.90;5.33;;;;;;;27.44;48.80;99306.47;1727897;83;21924;-79
2023/07/01 07:07:27;;;;;;;6.87;4.90;;;;;;;27.65;47.34;99309.09;1729317;83;21292;-80
2023/07/01 07:10:33;;;;;;;11.38;4.78;;;;;;;27.65;47.53;99309.67;1729450;83;21302;-80
2023/07/01 07:13:40;;;;;;;7.05;5.35;;;;;;;27.68;47.09;99306.23;1729386;83;21310;-80
2023/07/01 07:16:53;;;;;;;7.28;5.03;;;;;;;27.82;46.52;99309.89;1728162;83;21366;-80
2023/07/01 07:19:59;;;;;;;7.72;5.00;;;;;;;27.85;46.65;99318.25;1728126;83;21325;-80
2023/07/01 07:23:06;;;;;;;7.50;5.40;;;;;;;27.88;45.51;99316.23;1729414;83;21318;-80
2023/07/01 07:26:12;;;;;;;16.55;5.30;;;;;;;27.95;45.85;99309.62;1728600;83;21398;-80
2023/07/01 07:29:19;;;;;;;6.05;5.15;;;;;;;27.76;46.73;99317.61;1729399;83;21306;-80
2023/07/01 07:32:24;;;;;;;8.53;4.85;;;;;;;27.94;47.66;99313.55;1729328;83;21342;-80
2023/07/01 07:35:30;;;;;;;10.43;5.05;;;;;;;27.81;48.09;99318.62;1729063;83;21366;-80
2023/07/01 07:38:37;;;;;;;8.28;5.22;;;;;;;27.87;45.58;99322.42;1729294;83;21865;-80
2023/07/01 07:41:43;;;;;;;10.55;5.05;;;;;;;28.13;45.25;99302.16;1729361;83;21387;-80
2023/07/01 07:44:50;;;;;;;7.90;5.05;;;;;;;28.17;45.82;99320.05;1729276;83;21305;-80
2023/07/01 07:47:56;;;;;;;8.83;4.87;;;;;;;28.05;46.62;99314.17;1729467;83;21865;-80
2023/07/01 07:51:02;;;;;;;8.80;4.92;;;;;;;27.45;46.90;99320.19;1729252;83;21311;-80
2023/07/01 07:54:09;;;;;;;8.50;4.85;;;;;;;27.75;45.53;99328.56;1729354;83;21294;-80
2023/07/01 07:57:15;;;;;;;11.08;5.40;;;;;;;26.98;48.63;99332.00;1728148;83;21351;-80
2023/07/01 08:00:21;;;;;;;9.48;5.60;;;;;;;27.10;47.07;99333.50;1729352;83;21303;-81
2023/07/01 08:03:25;;;;;;;8.78;5.10;;;;;;;27.13;47.63;99314.65;1728226;83;21928;-81
2023/07/01 08:06:32;;;;;;;7.92;4.87;;;;;;;27.22;47.70;99327.66;1736425;82;21340;-79
2023/07/01 08:09:37;;;;;;;4.85;4.20;;;;;;;27.43;46.34;99323.89;1743090;82;21298;-81
2023/07/01 08:12:42;;;;;;;10.58;4.35;;;;;;;27.46;45.27;99320.44;1743137;82;21354;-81
2023/07/01 08:15:49;;;;;;;7.97;5.03;;;;;;;27.59;45.50;99324.39;1742993;82;21679;-81
2023/07/01 08:18:55;;;;;;;6.87;4.92;;;;;;;27.63;44.75;99335.27;1743155;82;21349;-81
2023/07/01 08:22:02;;;;;;;5.83;4.17;;;;;;;27.39;45.52;99334.08;1743271;82;21830;-81
2023/07/01 08:25:08;;;;;;;11.18;4.62;;;;;;;27.18;45.70;99331.39;1743172;82;21311;-81
2023/07/01 08:28:12;;;;;;;7.08;4.05;;;;;;;27.44;44.99;99331.73;1741864;82;21330;-81
2023/07/01 08:31:19;;;;;;;8.03;4.83;;;;;;;27.78;44.79;99336.95;1743187;82;21335;-81
2023/07/01 08:34:25;;;;;;;9.03;4.60;;;;;;;27.86;45.26;99334.81;1742966;82;21330;-81
2023/07/01 08:37:30;;;;;;;6.95;3.72;;;;;;;27.84;45.06;99331.47;1741782;82;21923;-80
2023/07/01 08:40:36;;;;;;;6.22;4.00;;;;;;;27.92;42.91;99340.58;1743404;82;21797;-81
2023/07/01 08:43:42;;;;;;;7.45;4.17;;;;;;;27.96;44.32;99335.16;1743150;82;21310;-81
2023/07/01 08:46:48;;;;;;;5.67;4.03;;;;;;;28.06;44.15;99328.48;1721979;82;21315;-82
2023/07/01 08:49:49;;;;;;;5.22;4.47;;;;;;;28.34;43.31;99339.08;1743049;82;21314;-81
2023/07/01 08:52:49;;;;;;;7.25;3.80;;;;;;;28.31;43.10;99339.12;1743252;82;21303;-81
2023/07/01 08:55:36;;;;;;;13.98;4.60;;;;;;;28.30;43.49;99329.03;1743134;82;21334;-81
2023/07/01 08:58:40;;;;;;;6.58;3.83;;;;;;;28.35;42.63;99338.78;1743125;82;21298;-81
2023/07/01 09:01:47;;;;;;;5.72;3.75;;;;;;;28.52;41.42;99335.29;1741717;82;21307;-81
2023/07/01 09:04:53;;;;;;;8.05;3.90;;;;;;;28.61;41.82;99334.78;1743025;82;22615;-81
2023/07/01 09:08:00;;;;;;;5.53;3.72;;;;;;;28.55;42.45;99333.23;1727665;80;21322;-81
2023/07/01 09:11:06;;;;;;;8.00;4.08;;;;;;;28.42;43.02;99334.11;1722981;83;21347;-80
2023/07/01 09:14:05;;;;;;;4.30;3.90;;;;;;;28.22;43.17;99334.82;1722954;83;21295;-80
2023/07/01 09:16:56;;;;;;;4.00;3.60;;;;;;;28.30;44.03;99342.26;1722652;83;21338;-81
2023/07/01 09:20:08;;;;;;;8.20;3.50;;;;;;;28.35;43.16;99339.36;1722666;83;21334;-80
2023/07/01 09:23:14;;;;;;;4.28;3.37;;;;;;;28.66;41.40;99338.05;1723011;83;21315;-80
2023/07/01 09:26:24;;;;;;;4.25;3.85;;;;;;;28.81;39.88;99337.65;1722968;83;21315;-81
2023/07/01 09:29:30;;;;;;;9.95;3.85;;;;;;;29.02;40.55;99338.79;1722873;83;21351;-80
2023/07/01 09:32:37;;;;;;;11.60;4.03;;;;;;;29.14;40.82;99341.61;1685013;83;21323;-81
2023/07/01 09:35:55;;;;;;;5.05;3.62;;;;;;;29.25;40.56;99342.40;1722361;83;21335;-81
2023/07/01 09:38:59;;;;;;;4.83;3.72;;;;;;;29.17;39.44;99343.20;1721401;83;21347;-81
2023/07/01 09:42:11;;;;;;;6.53;3.98;;;;;;;28.34;42.61;99340.48;1722828;83;21303;-81
2023/07/01 09:45:18;;;;;;;11.63;3.30;;;;;;;28.45;41.59;99333.48;1723055;83;21302;-80
2023/07/01 09:48:24;;;;;;;5.20;3.67;;;;;;;28.61;40.45;99328.33;1722228;83;21930;-81
2023/07/01 09:51:35;;;;;;;4.58;3.40;;;;;;;28.69;39.89;99338.79;1722008;83;21910;-81
2023/07/01 09:54:42;;;;;;;5.87;3.62;;;;;;;28.78;40.03;99323.63;1723136;83;21838;-81
2023/07/01 09:57:49;;;;;;;6.95;3.35;;;;;;;28.52;41.04;99338.93;1702712;83;21679;-80
2023/07/01 10:00:57;;;;;;;8.60;3.75;;;;;;;28.46;40.77;99334.56;1722878;83;21307;-80
2023/07/01 10:04:06;;;;;;;4.25;3.30;;;;;;;28.65;40.40;99334.38;1722906;83;21880;-80
2023/07/01 10:07:13;;;;;;;4.70;3.40;;;;;;;28.74;40.39;99333.86;1721688;82;21326;-80
2023/07/01 10:10:33;;;;;;;6.60;3.00;;;;;;;28.78;39.17;99322.22;1737523;82;21312;-80
2023/07/01 10:13:39;;;;;;;;;;;;;;;28.87;38.70;99332.72;1740102;82;21909;-80
2023/07/01 10:16:54;;;;;;;7.65;2.85;;;;;;;28.66;40.14;99334.66;1701495;84;20295;-80
2023/07/01 10:20:00;;;;;;;3.35;2.95;;;;;;;28.90;38.93;99334.89;1736113;82;21330;-80
2023/07/01 10:23:08;;;;;;;4.60;3.15;;;;;;;28.88;39.72;99337.19;1737756;82;21314;-80
2023/07/01 10:26:40;;;;;;;3.52;3.00;;;;;;;28.78;39.34;99332.65;1737476;82;21314;-80
2023/07/01 10:29:46;;;;;;;10.18;2.72;;;;;;;28.83;40.06;99335.91;1737624;82;21868;-81
2023/07/01 10:32:52;;;;;;;3.08;2.77;;;;;;;28.96;37.21;99332.22;1737556;82;21302;-80
2023/07/01 10:36:18;;;;;;;3.85;2.33;;;;;;;28.87;36.47;99331.30;1737337;82;21330;-80
2023/07/01 10:39:40;;;;;;;8.00;3.25;;;;;;;28.68;38.48;99335.15;1736331;82;21338;-80
2023/07/01 10:42:48;;;;;;;3.60;2.90;;;;;;;28.88;38.29;99331.55;1737370;82;21361;-80
2023/07/01 10:45:47;;;;;;;;;;;;;;;28.99;37.16;99333.00;1738791;82;21856;-80
2023/07/01 10:49:14;;;;;;;3.47;2.70;;;;;;;29.14;37.41;99328.94;1736021;82;20333;-80
2023/07/01 10:52:20;;;;;;;4.25;3.05;;;;;;;29.24;36.40;99330.89;1736662;82;21225;-80
2023/07/01 10:55:47;;;;;;;4.80;2.80;;;;;;;29.21;37.68;99332.11;1737428;82;21324;-80
2023/07/01 10:58:53;;;;;;;3.30;2.87;;;;;;;29.25;37.24;99322.69;1737122;82;21356;-81
2023/07/01 11:02:01;;;;;;;3.30;2.47;;;;;;;29.29;37.42;99322.87;1737354;82;22009;-80
2023/07/01 11:05:11;;;;;;;4.15;2.65;;;;;;;29.29;36.63;99314.42;1737393;82;21299;-81
2023/07/01 11:08:16;;;;;;;2.80;2.58;;;;;;;29.36;36.56;99320.44;1736494;82;21351;-82
2023/07/01 11:11:26;;;;;;;7.55;2.85;;;;;;;29.48;36.99;99314.17;1737504;82;21304;-82
2023/07/01 11:14:42;;;;;;;5.22;2.60;;;;;;;29.43;36.32;99316.55;1736082;82;21310;-82
2023/07/01 11:17:52;;;;;;;4.10;2.77;;;;;;;29.48;36.55;99316.41;1737706;82;21302;-81
2023/07/01 11:20:58;;;;;;;3.40;2.92;;;;;;;29.41;37.16;99316.06;1737367;82;21307;-81
2023/07/01 11:24:16;;;;;;;4.17;2.42;;;;;;;29.36;36.25;99328.89;1737322;82;21309;-82
2023/07/01 11:27:21;;;;;;;5.80;2.80;;;;;;;29.42;36.47;99330.39;1737502;82;21306;-81
2023/07/01 11:30:37;;;;;;;3.02;2.45;;;;;;;29.61;36.16;99324.53;1736164;82;21318;-81
2023/07/01 11:33:43;;;;;;;3.17;2.87;;;;;;;29.79;36.98;99312.15;1737550;82;21350;-82
2023/07/01 11:36:52;;;;;;;3.85;2.47;;;;;;;29.86;36.96;99309.42;1737529;82;21230;-81
2023/07/01 11:39:59;;;;;;;2.70;2.47;;;;;;;30.01;35.77;99310.34;1736741;82;21342;-81
2023/07/01 11:43:04;;;;;;;3.72;2.85;;;;;;;29.91;36.35;99307.85;1736171;82;21338;-81
2023/07/01 11:46:10;;;;;;;3.87;3.05;;;;;;;30.08;35.98;99309.88;1737465;82;21323;-81
2023/07/01 11:49:31;;;;;;;5.55;3.40;;;;;;;29.62;36.77;99306.46;1737020;82;21342;-80
2023/07/01 11:52:38;;;;;;;3.87;3.00;;;;;;;29.46;37.35;99308.05;1737080;82;21332;-80
2023/07/01 11:55:44;;;;;;;3.10;2.67;;;;;;;29.52;36.34;99312.37;1737438;82;21303;-80
2023/07/01 11:58:55;;;;;;;2.98;2.67;;;;;;;29.41;36.72;99316.64;1738360;82;21274;-80
2023/07/01 12:02:00;;;;;;;6.42;2.52;;;;;;;29.37;36.87;99312.23;1738267;82;21357;-80
2023/07/01 12:05:01;;;;;;;4.80;2.87;;;;;;;29.91;36.37;99318.55;1737654;82;21893;-81
2023/07/01 12:08:08;;;;;;;5.60;2.50;;;;;;;30.08;35.85;99314.94;1737139;82;21341;-82
2023/07/01 12:11:26;;;;;;;4.78;2.87;;;;;;;30.04;34.71;99321.80;1729859;82;21343;-81
2023/07/01 12:14:33;;;;;;;8.90;2.95;;;;;;;30.12;35.06;99313.12;1727938;83;21353;-82
2023/07/01 12:17:38;;;;;;;3.15;2.85;;;;;;;29.72;36.62;99320.82;1729331;83;21334;-80
2023/07/01 12:20:44;;;;;;;4.53;2.75;;;;;;;29.72;36.62;99320.82;1728414;83;21350;-80
2023/07/01 12:23:53;;;;;;;4.05;2.52;;;;;;;30.02;35.37;99315.68;1728792;83;21369;-80
2023/07/01 12:27:03;;;;;;;4.55;3.40;;;;;;;30.07;34.90;99307.64;1729571;83;21303;-80
2023/07/01 12:30:10;;;;;;;3.50;3.02;;;;;;;30.07;34.90;99307.64;1728876;83;21920;-81
2023/07/01 12:33:15;;;;;;;4.30;3.42;;;;;;;30.03;35.71;99316.50;1729351;83;21326;-80
2023/07/01 12:36:21;;;;;;;4.40;3.00;;;;;;;29.86;35.81;99313.64;1729485;83;21299;-80
2023/07/01 12:39:27;;;;;;;3.35;3.02;;;;;;;29.86;35.81;99313.64;1728500;83;21386;-80
2023/07/01 12:42:34;;;;;;;3.40;2.87;;;;;;;29.87;35.98;99313.89;1729370;83;21640;-80
2023/07/01 12:45:40;;;;;;;4.00;2.70;;;;;;;30.05;36.25;99316.99;1729406;83;22616;-80
2023/07/01 12:48:50;;;;;;;3.85;2.83;;;;;;;30.09;36.18;99314.35;1729343;83;21875;-80
2023/07/01 12:51:56;;;;;;;5.30;2.70;;;;;;;30.01;36.00;99320.22;1713069;83;21303;-80
2023/07/01 12:55:01;;;;;;;4.75;2.70;;;;;;;30.27;34.37;99309.83;1728250;83;21365;-81
2023/07/01 12:58:06;;;;;;;7.83;3.33;;;;;;;30.27;34.37;99309.83;1729498;83;21335;-81
2023/07/01 13:01:13;;;;;;;2.92;2.70;;;;;;;30.39;34.90;99309.73;1712872;83;21345;-81
2023/07/01 13:04:18;;;;;;;6.03;3.08;;;;;;;30.54;34.24;99311.49;1729380;83;21311;-80
2023/07/01 13:07:25;;;;;;;6.37;3.02;;;;;;;30.42;35.23;99316.14;1729327;83;21904;-80
2023/07/01 13:10:32;;;;;;;3.08;2.77;;;;;;;30.35;34.15;99317.20;1727817;83;21338;-81
2023/07/01 13:13:42;;;;;;;4.53;3.22;;;;;;;30.42;33.72;99309.91;1730190;82;21215;-81
2023/07/01 13:16:48;;;;;;;11.48;3.40;;;;;;;30.36;34.25;99306.19;1728867;83;21314;-80
2023/07/01 13:19:55;;;;;;;3.52;2.98;;;;;;;30.04;34.97;99305.47;1727390;83;21881;-80
2023/07/01 13:23:02;;;;;;;6.65;3.30;;;;;;;30.26;33.66;99300.30;1727606;83;22567;-80
2023/07/01 13:26:08;;;;;;;4.50;3.20;;;;;;;30.26;33.66;99300.30;1729554;83;21307;-81
2023/07/01 13:29:21;;;;;;;4.72;2.47;;;;;;;30.28;33.75;99300.20;1727600;83;21917;-80
2023/07/01 13:32:28;;;;;;;3.60;3.10;;;;;;;30.18;35.39;99300.54;1721706;83;21896;-80
2023/07/01 13:35:33;;;;;;;4.53;3.30;;;;;;;30.18;35.39;99300.54;1712331;83;21335;-80
2023/07/01 13:38:41;;;;;;;8.40;3.20;;;;;;;30.07;34.62;99298.36;1728946;83;21302;-80
2023/07/01 13:41:47;;;;;;;3.45;2.60;;;;;;;30.09;34.60;99296.85;1694107;83;21345;-80
2023/07/01 13:44:51;;;;;;;5.70;3.47;;;;;;;29.77;35.83;99297.54;1729029;83;21302;-80
2023/07/01 13:47:57;;;;;;;4.45;2.77;;;;;;;29.88;35.70;99301.45;1728931;83;21310;-80
2023/07/01 13:51:04;;;;;;;5.78;2.90;;;;;;;30.05;35.55;99290.21;1728415;83;21291;-80
2023/07/01 13:54:11;;;;;;;4.08;3.05;;;;;;;30.04;35.28;99285.16;1727406;83;21315;-81
2023/07/01 13:57:20;;;;;;;4.40;3.12;;;;;;;29.92;36.51;99286.38;1728812;83;21291;-80
2023/07/01 14:00:44;;;;;;;7.62;3.70;;;;;;;29.80;35.82;99291.84;1713334;83;21318;-80
2023/07/01 14:04:03;;;;;;;3.47;3.15;;;;;;;29.96;35.25;99286.55;1725860;83;21338;-80
2023/07/01 14:07:15;;;;;;;4.87;3.10;;;;;;;30.06;35.43;99284.81;1727137;83;21314;-80
2023/07/01 14:10:41;;;;;;;3.95;2.98;;;;;;;29.94;35.81;99288.88;1728102;83;21392;-80
2023/07/01 14:13:47;;;;;;;8.10;3.30;;;;;;;29.97;36.25;99281.16;1727908;82;21944;-80
2023/07/01 14:16:54;;;;;;;4.22;3.15;;;;;;;30.13;36.07;99279.55;1729243;83;21314;-80
2023/07/01 14:20:01;;;;;;;5.08;3.02;;;;;;;30.15;35.86;99277.80;1729149;83;21546;-81
2023/07/01 14:23:10;;;;;;;5.47;3.30;;;;;;;30.04;35.70;99278.69;1729403;83;21347;-81
2023/07/01 14:26:19;;;;;;;6.28;3.60;;;;;;;29.49;36.57;99280.61;1727991;83;21334;-81
2023/07/01 14:29:25;;;;;;;3.60;3.27;;;;;;;29.44;35.86;99283.00;1727866;83;21291;-81
2023/07/01 14:32:25;;;;;;;3.30;2.98;;;;;;;29.28;37.23;99287.43;1728251;83;21295;-81
2023/07/01 14:35:30;;;;;;;4.10;2.83;;;;;;;29.76;36.17;99285.20;1727882;83;21311;-80
2023/07/01 14:38:45;;;;;;;4.58;3.47;;;;;;;29.82;35.84;99290.09;1729030;83;21880;-81